Miracle Valley, Arizona
Current Conditions -  °F | °C
As of 11:55 AM on Friday 21 Nov 2014 (Local Time) from KFHU Reporting Station
Overcast Overcast  
Wind Chill: 63°   Ceiling: 18000
Heat Index: 63°   Visibility: 10mi
Dew Point: 16°   Wind: 9mph
Humidity: 16%   Direction: 160°SSE
Pressure: 29.97"   Gusts: 16mph
Location:  31.4041°N, 110.306°W
Report Text: KFHU 211855Z 16008G14KT 10SM BKN180 OVC230 17/M09 A2997 RMK SLP117
Loading
Personal Weather Stations






























Interactive Weather Map New forecast layout! Learn more

10-Day Weather Forecast

Advertisements
Track Severe Weather on mobile